Ms-hammaritha — PF2437 — position and weather

sailwx.info

Track history (hours):
 
Tides and Currents Weather Stations Pressure Air Temp Water Temp Dewpoint Dewpoint Depression Visibility Wind Speed Wind Dir Waves Ship Positions

Ms-hammaritha

Last reported at 2014-Aug-21 17:29 UTC. Time now 2014-Aug-21 18:05 UTC.
Position N 53°31' E 010°04'.

Length 86 m.

Type: Ship. MMSI: 244700691.

Date/timePositionNaut miles runAvg speedWind from/ knotsBaromVisibWave heightAir tempDewpointWater temp
2014-Aug-21 17:29N 53°31' E 010°04'4 3.8
2014-Aug-21 16:33N 53°32' E 009°58'0 0.0
2014-Aug-21 15:33N 53°32' E 009°58'0 0.0
2014-Aug-21 14:33N 53°32' E 009°58'0 0.1
2014-Aug-21 13:33N 53°32' E 009°58'0 0.0
2014-Aug-21 12:33N 53°32' E 009°58'0 0.0
2014-Aug-21 11:33N 53°32' E 009°58'0 0.0
2014-Aug-21 10:33N 53°32' E 009°58'0 0.0
2014-Aug-21 09:33N 53°32' E 009°58'0 0.0
2014-Aug-21 08:34N 53°32' E 009°58'0 0.0
2014-Aug-21 07:33N 53°32' E 009°58'0 0.0
2014-Aug-21 06:33N 53°32' E 009°58'0 0.0
2014-Aug-21 05:33N 53°32' E 009°58'0 0.0
2014-Aug-21 04:33N 53°32' E 009°58'1 0.1
2014-Aug-20 18:33N 53°32' E 009°57'0 0.5
2014-Aug-20 17:33N 53°32' E 009°58'0 0.0
2014-Aug-20 16:33N 53°32' E 009°58'0 0.0
2014-Aug-20 15:33N 53°32' E 009°58'0 0.0
2014-Aug-20 14:33N 53°32' E 009°58'0 0.0
2014-Aug-20 13:33N 53°32' E 009°58'0 0.0
2014-Aug-20 12:33N 53°32' E 009°58'1 0.8
2014-Aug-20 11:33N 53°32' E 009°57'3 3.2
2014-Aug-20 10:31N 53°32' E 010°02'6 5.9
2014-Aug-20 09:33N 53°26' E 010°06'  
2014-Aug-15 11:16N 51°38' E 007°20'3 4.3
2014-Aug-15 10:29N 51°35' E 007°17'2 2.0
2014-Aug-15 09:27N 51°34' E 007°14'3 3.5
2014-Aug-15 08:33N 51°33' E 007°10'3 3.5
2014-Aug-15 07:33N 51°32' E 007°04'  
Track history (hours):
 
Tides and Currents Weather Stations Pressure Air Temp Water Temp Dewpoint Dewpoint Depression Visibility Wind Speed Wind Dir Waves Ship Positions

Ms-hammaritha

Last reported at 2014-Aug-21 17:29 UTC. Time now 2014-Aug-21 18:05 UTC.
Position N 53°31' E 010°04'.

Length 86 m.

Type: Ship. MMSI: 244700691.

Date/timePositionNaut miles runAvg speedWind from/ knotsBaromVisibWave heightAir tempDewpointWater temp
2014-Aug-21 17:29N 53°31' E 010°04'4 3.8
2014-Aug-21 16:33N 53°32' E 009°58'0 0.0
2014-Aug-21 15:33N 53°32' E 009°58'0 0.0
2014-Aug-21 14:33N 53°32' E 009°58'0 0.1
2014-Aug-21 13:33N 53°32' E 009°58'0 0.0
2014-Aug-21 12:33N 53°32' E 009°58'0 0.0
2014-Aug-21 11:33N 53°32' E 009°58'0 0.0
2014-Aug-21 10:33N 53°32' E 009°58'0 0.0
2014-Aug-21 09:33N 53°32' E 009°58'0 0.0
2014-Aug-21 08:34N 53°32' E 009°58'0 0.0
2014-Aug-21 07:33N 53°32' E 009°58'0 0.0
2014-Aug-21 06:33N 53°32' E 009°58'0 0.0
2014-Aug-21 05:33N 53°32' E 009°58'0 0.0
2014-Aug-21 04:33N 53°32' E 009°58'1 0.1
2014-Aug-20 18:33N 53°32' E 009°57'0 0.5
2014-Aug-20 17:33N 53°32' E 009°58'0 0.0
2014-Aug-20 16:33N 53°32' E 009°58'0 0.0
2014-Aug-20 15:33N 53°32' E 009°58'0 0.0
2014-Aug-20 14:33N 53°32' E 009°58'0 0.0
2014-Aug-20 13:33N 53°32' E 009°58'0 0.0
2014-Aug-20 12:33N 53°32' E 009°58'1 0.8
2014-Aug-20 11:33N 53°32' E 009°57'3 3.2
2014-Aug-20 10:31N 53°32' E 010°02'6 5.9
2014-Aug-20 09:33N 53°26' E 010°06'  
2014-Aug-15 11:16N 51°38' E 007°20'3 4.3
2014-Aug-15 10:29N 51°35' E 007°17'2 2.0
2014-Aug-15 09:27N 51°34' E 007°14'3 3.5
2014-Aug-15 08:33N 51°33' E 007°10'3 3.5
2014-Aug-15 07:33N 51°32' E 007°04'  

Dump ship's entire track history